createdAt,value
2023-04-26T00:01:09.679Z,7
2023-04-26T00:02:23.842Z,7
2023-04-26T00:04:52.223Z,7
2023-04-26T00:06:06.243Z,11
2023-04-26T00:07:20.262Z,9
2023-04-26T00:09:48.554Z,9
2023-04-26T00:11:02.724Z,10
2023-04-26T00:12:16.927Z,10
2023-04-26T00:14:45.192Z,9
2023-04-26T00:15:59.231Z,9
2023-04-26T00:17:13.347Z,7
2023-04-26T00:19:41.616Z,7
2023-04-26T00:20:55.771Z,9
2023-04-26T00:22:09.977Z,5
2023-04-26T00:23:24.055Z,8
2023-04-26T00:25:52.288Z,7
2023-04-26T00:27:06.623Z,13
2023-04-26T00:28:20.525Z,9
2023-04-26T00:30:48.889Z,10
2023-04-26T00:32:03.085Z,10
2023-04-26T00:33:17.171Z,14
2023-04-26T00:35:45.368Z,10
2023-04-26T00:36:59.587Z,9
2023-04-26T00:38:13.695Z,7
2023-04-26T00:40:41.980Z,6
2023-04-26T00:41:56.027Z,8
2023-04-26T00:43:10.163Z,8
2023-04-26T00:44:24.297Z,9
2023-04-26T00:46:52.772Z,6
2023-04-26T00:48:06.899Z,7
2023-04-26T00:49:20.799Z,11
2023-04-26T00:51:49.075Z,9
2023-04-26T00:53:03.297Z,6
2023-04-26T00:54:17.445Z,6
2023-04-26T00:56:45.694Z,7
2023-04-26T00:57:59.748Z,7
2023-04-26T00:59:13.994Z,6
2023-04-26T01:01:42.220Z,7
2023-04-26T01:02:56.414Z,7
2023-04-26T01:04:10.455Z,9
2023-04-26T01:05:24.563Z,6
2023-04-26T01:07:52.827Z,7
2023-04-26T01:09:07.084Z,6
2023-04-26T01:10:21.048Z,11
2023-04-26T01:12:49.364Z,13
2023-04-26T01:14:03.524Z,11
2023-04-26T01:15:17.616Z,9
2023-04-26T01:17:45.941Z,7
2023-04-26T01:19:00.023Z,7
2023-04-26T01:20:14.208Z,7
2023-04-26T01:22:42.480Z,8
2023-04-26T01:23:56.564Z,7
2023-04-26T01:25:10.633Z,8
2023-04-26T01:26:24.833Z,11
2023-04-26T01:28:53.350Z,8
2023-04-26T01:30:07.338Z,9
2023-04-26T01:31:21.412Z,7
2023-04-26T01:33:49.748Z,8
2023-04-26T01:35:03.756Z,9
2023-04-26T01:36:17.917Z,10
2023-04-26T01:38:46.177Z,7
2023-04-26T01:40:00.268Z,7
2023-04-26T01:41:14.399Z,12
2023-04-26T01:43:42.698Z,7
2023-04-26T01:44:56.809Z,9
2023-04-26T01:46:10.965Z,7
2023-04-26T01:48:39.261Z,14
2023-04-26T01:49:53.411Z,13
2023-04-26T01:51:07.501Z,9
2023-04-26T01:52:21.577Z,9
2023-04-26T01:54:49.850Z,8
2023-04-26T01:56:04.107Z,7
2023-04-26T01:57:18.141Z,8
2023-04-26T01:59:46.498Z,7
2023-04-26T02:01:00.500Z,10
2023-04-26T02:02:14.803Z,8
2023-04-26T02:04:43.178Z,8
2023-04-26T02:05:57.072Z,9
2023-04-26T02:07:11.659Z,7
2023-04-26T02:09:39.499Z,9
2023-04-26T02:10:53.655Z,8
2023-04-26T02:12:07.730Z,9
2023-04-26T02:13:21.895Z,10
2023-04-26T02:15:50.155Z,15
2023-04-26T02:17:04.352Z,12
2023-04-26T02:18:18.439Z,11
2023-04-26T02:20:46.761Z,11
2023-04-26T02:22:00.827Z,11
2023-04-26T02:23:15.032Z,14
2023-04-26T02:25:43.299Z,22
2023-04-26T02:26:57.343Z,21
2023-04-26T02:28:11.454Z,14
2023-04-26T02:30:39.786Z,10
2023-04-26T02:31:54.091Z,11
2023-04-26T02:34:22.123Z,16
2023-04-26T02:36:50.364Z,10
2023-04-26T02:38:04.572Z,13
2023-04-26T02:39:18.659Z,12
2023-04-26T02:41:46.990Z,13
2023-04-26T02:43:01.062Z,11
2023-04-26T02:44:15.275Z,11
2023-04-26T02:46:43.534Z,12
2023-04-26T02:47:57.610Z,9
2023-04-26T02:49:11.703Z,12
2023-04-26T02:50:25.962Z,9
2023-04-26T02:51:39.999Z,11
2023-04-26T02:52:54.237Z,11
2023-04-26T02:54:08.260Z,11
2023-04-26T02:55:22.512Z,11
2023-04-26T02:57:50.633Z,9
2023-04-26T02:59:04.785Z,11
2023-04-26T03:00:18.955Z,11
2023-04-26T03:02:47.357Z,13
2023-04-26T03:04:01.401Z,9
2023-04-26T03:05:15.468Z,10
2023-04-26T03:07:43.736Z,11
2023-04-26T03:08:57.855Z,13
2023-04-26T03:10:11.994Z,9
2023-04-26T03:12:40.236Z,11
2023-04-26T03:13:54.465Z,14
2023-04-26T03:15:08.612Z,9
2023-04-26T03:16:22.763Z,11
2023-04-26T03:18:51.129Z,10
2023-04-26T03:20:05.178Z,8
2023-04-26T03:21:19.290Z,8
2023-04-26T03:23:47.488Z,8
2023-04-26T03:25:01.582Z,10
2023-04-26T03:26:15.753Z,10
2023-04-26T03:28:44.008Z,8
2023-04-26T03:29:58.169Z,6
2023-04-26T03:31:12.267Z,8
2023-04-26T03:33:40.504Z,8
2023-04-26T03:34:54.729Z,8
2023-04-26T03:36:08.866Z,9
2023-04-26T03:37:22.945Z,10
2023-04-26T03:39:51.171Z,8
2023-04-26T03:41:05.337Z,12
2023-04-26T03:42:19.562Z,8
2023-04-26T03:44:47.813Z,9
2023-04-26T03:46:01.881Z,15
2023-04-26T03:47:16.025Z,10
2023-04-26T03:49:44.258Z,11
2023-04-26T03:50:58.433Z,9
2023-04-26T03:52:12.676Z,11
2023-04-26T03:54:40.772Z,14
2023-04-26T03:55:54.962Z,11
2023-04-26T03:57:09.098Z,11
2023-04-26T03:58:23.245Z,13
2023-04-26T04:00:51.493Z,9
2023-04-26T04:02:05.623Z,14
2023-04-26T04:03:19.886Z,13
2023-04-26T04:05:47.999Z,15
2023-04-26T04:07:02.150Z,10
2023-04-26T04:08:16.254Z,16
2023-04-26T04:10:44.527Z,14
2023-04-26T04:11:58.765Z,10
2023-04-26T04:13:12.795Z,12
2023-04-26T04:14:27.018Z,13
2023-04-26T04:15:41.078Z,12
2023-04-26T04:16:55.535Z,13
2023-04-26T04:18:09.383Z,11
2023-04-26T04:19:23.509Z,10
2023-04-26T04:21:51.719Z,11
2023-04-26T04:23:05.866Z,10
2023-04-26T04:24:19.992Z,15
2023-04-26T04:26:48.315Z,15
2023-04-26T04:28:02.398Z,9
2023-04-26T04:29:16.596Z,13
2023-04-26T04:31:44.855Z,13
2023-04-26T04:32:59.051Z,13
2023-04-26T04:34:13.068Z,11
2023-04-26T04:36:41.401Z,16
2023-04-26T04:37:55.653Z,11
2023-04-26T04:39:09.571Z,15
2023-04-26T04:40:23.825Z,16
2023-04-26T04:42:52.103Z,14
2023-04-26T04:44:06.131Z,12
2023-04-26T04:45:20.242Z,10
2023-04-26T04:47:48.577Z,10
2023-04-26T04:49:02.648Z,9
2023-04-26T04:50:16.852Z,9
2023-04-26T04:52:45.053Z,11
2023-04-26T04:53:59.236Z,11
2023-04-26T04:55:13.404Z,13
2023-04-26T04:57:42.934Z,14
2023-04-26T04:58:55.787Z,14
2023-04-26T05:00:10.428Z,13
2023-04-26T05:01:24.086Z,14
2023-04-26T05:03:52.660Z,12
2023-04-26T05:05:06.596Z,9
2023-04-26T05:06:20.500Z,16
2023-04-26T05:08:48.916Z,10
2023-04-26T05:10:03.023Z,12
2023-04-26T05:11:17.083Z,11
2023-04-26T05:13:45.325Z,10
2023-04-26T05:14:59.486Z,11
2023-04-26T05:16:13.715Z,12
2023-04-26T05:18:41.844Z,12
2023-04-26T05:19:56.024Z,16
2023-04-26T05:21:10.134Z,11
2023-04-26T05:22:24.304Z,13
2023-04-26T05:24:52.524Z,12
2023-04-26T05:26:06.747Z,14
2023-04-26T05:27:20.755Z,14
2023-04-26T05:29:49.157Z,18
2023-04-26T05:31:03.289Z,12
2023-04-26T05:32:17.408Z,18
2023-04-26T05:34:45.599Z,13
2023-04-26T05:35:59.750Z,16
2023-04-26T05:37:13.864Z,11
2023-04-26T05:39:42.109Z,13
2023-04-26T05:40:56.256Z,14
2023-04-26T05:42:10.442Z,14
2023-04-26T05:44:38.697Z,17
2023-04-26T05:45:52.877Z,17
2023-04-26T05:47:06.921Z,16
2023-04-26T05:48:21.024Z,15
2023-04-26T05:50:49.394Z,15
2023-04-26T05:52:03.514Z,16
2023-04-26T05:53:17.605Z,15
2023-04-26T05:55:45.881Z,18
2023-04-26T05:57:00.158Z,17
2023-04-26T05:58:14.226Z,16
2023-04-26T06:00:42.392Z,17
2023-04-26T06:01:56.533Z,18
2023-04-26T06:03:10.796Z,13
2023-04-26T06:04:24.966Z,11
2023-04-26T06:06:53.059Z,12
2023-04-26T06:08:07.210Z,15
2023-04-26T06:09:21.298Z,15
2023-04-26T06:11:49.637Z,15
2023-04-26T06:13:03.720Z,14
2023-04-26T06:14:29.608Z,17
2023-04-26T06:16:46.216Z,15
2023-04-26T06:18:00.300Z,15
2023-04-26T06:19:14.438Z,16
2023-04-26T06:21:42.736Z,16
2023-04-26T06:22:56.776Z,17
2023-04-26T06:24:10.890Z,18
2023-04-26T06:25:25.147Z,16
2023-04-26T06:27:53.418Z,16
2023-04-26T06:29:07.554Z,16
2023-04-26T06:30:21.569Z,18
2023-04-26T06:32:49.868Z,17
2023-04-26T06:34:03.996Z,14
2023-04-26T06:35:18.153Z,19
2023-04-26T06:37:46.375Z,15
2023-04-26T06:39:00.519Z,22
2023-04-26T06:40:14.812Z,19
2023-04-26T06:42:42.934Z,19
2023-04-26T06:43:57.046Z,15
2023-04-26T06:45:11.185Z,18
2023-04-26T06:47:39.462Z,19
2023-04-26T06:48:53.593Z,19
2023-04-26T06:50:07.815Z,21
2023-04-26T06:51:21.976Z,15
2023-04-26T06:53:50.269Z,21
2023-04-26T06:55:04.364Z,18
2023-04-26T06:56:18.528Z,22
2023-04-26T06:58:46.646Z,20
2023-04-26T07:00:00.753Z,22
2023-04-26T07:01:14.980Z,22
2023-04-26T07:03:43.352Z,22
2023-04-26T07:04:57.479Z,17
2023-04-26T07:06:11.427Z,18
2023-04-26T07:08:39.730Z,17
2023-04-26T07:09:53.909Z,16
2023-04-26T07:11:08.041Z,23
2023-04-26T07:12:22.132Z,20
2023-04-26T07:14:50.352Z,21
2023-04-26T07:16:04.655Z,21
2023-04-26T07:17:18.742Z,22
2023-04-26T07:19:46.932Z,20
2023-04-26T07:21:01.029Z,23
2023-04-26T07:22:15.196Z,24
2023-04-26T07:24:43.454Z,19
2023-04-26T07:25:57.880Z,22
2023-04-26T07:27:11.784Z,17
2023-04-26T07:28:25.850Z,22
2023-04-26T07:29:39.977Z,22
2023-04-26T07:30:54.164Z,24
2023-04-26T07:32:08.312Z,20
2023-04-26T07:33:22.697Z,27
2023-04-26T07:35:50.628Z,21
2023-04-26T07:37:04.861Z,17
2023-04-26T07:38:18.905Z,18
2023-04-26T07:40:47.239Z,17
2023-04-26T07:42:01.300Z,19
2023-04-26T07:43:15.466Z,18
2023-04-26T07:45:43.817Z,15
2023-04-26T07:46:57.868Z,18
2023-04-26T07:48:12.128Z,16
2023-04-26T07:50:40.231Z,14
2023-04-26T07:51:54.381Z,21
2023-04-26T07:53:08.523Z,19
2023-04-26T07:54:22.675Z,19
2023-04-26T07:56:50.909Z,33
2023-04-26T07:58:05.062Z,55
2023-04-26T07:59:19.206Z,27
2023-04-26T08:01:47.528Z,31
2023-04-26T08:03:01.883Z,24
2023-04-26T08:04:15.971Z,22
2023-04-26T08:06:43.980Z,26
2023-04-26T08:07:58.209Z,16
2023-04-26T08:09:12.224Z,14
2023-04-26T08:11:40.530Z,19
2023-04-26T08:12:54.653Z,24
2023-04-26T08:14:08.774Z,15
2023-04-26T08:15:23.006Z,15
2023-04-26T08:17:51.184Z,19
2023-04-26T08:19:05.427Z,11
2023-04-26T08:20:19.712Z,12
2023-04-26T08:22:47.729Z,16
2023-04-26T08:24:01.852Z,15
2023-04-26T08:25:16.004Z,17
2023-04-26T08:27:44.271Z,17
2023-04-26T08:28:58.413Z,15
2023-04-26T08:30:12.566Z,19
2023-04-26T08:32:40.782Z,17
2023-04-26T08:33:55.154Z,14
2023-04-26T08:35:09.155Z,17
2023-04-26T08:36:23.245Z,17
2023-04-26T08:38:51.438Z,18
2023-04-26T08:40:05.653Z,17
2023-04-26T08:41:19.718Z,20
2023-04-26T08:43:48.077Z,16
2023-04-26T08:45:02.113Z,21
2023-04-26T08:46:16.324Z,19
2023-04-26T08:48:44.521Z,14
2023-04-26T08:49:58.684Z,18
2023-04-26T08:51:12.799Z,12
2023-04-26T08:52:26.953Z,14
2023-04-26T08:53:41.044Z,14
2023-04-26T08:54:55.205Z,17
2023-04-26T08:56:09.358Z,14
2023-04-26T08:57:23.530Z,14
2023-04-26T08:59:51.775Z,13
2023-04-26T09:01:05.840Z,14
2023-04-26T09:02:20.093Z,18
2023-04-26T09:04:48.536Z,12
2023-04-26T09:06:04.422Z,13
2023-04-26T09:07:16.538Z,13
2023-04-26T09:09:44.783Z,13
2023-04-26T09:10:59.008Z,13
2023-04-26T09:12:13.152Z,14
2023-04-26T09:14:41.283Z,15
2023-04-26T09:15:55.474Z,14
2023-04-26T09:17:09.602Z,15
2023-04-26T09:18:23.738Z,15
2023-04-26T09:20:52.016Z,11
2023-04-26T09:22:06.175Z,14
2023-04-26T09:23:20.216Z,14
2023-04-26T09:25:48.568Z,12
2023-04-26T09:27:02.649Z,15
2023-04-26T09:28:16.843Z,15
2023-04-26T09:30:45.042Z,15
2023-04-26T09:31:59.253Z,14
2023-04-26T09:33:13.467Z,18
2023-04-26T09:35:41.545Z,13
2023-04-26T09:36:55.816Z,13
2023-04-26T09:38:13.220Z,15
2023-04-26T09:39:23.960Z,11
2023-04-26T09:41:52.292Z,13
2023-04-26T09:43:06.420Z,10
2023-04-26T09:44:20.517Z,9
2023-04-26T09:46:48.891Z,12
2023-04-26T09:48:02.926Z,8
2023-04-26T09:49:17.098Z,11
2023-04-26T09:51:45.303Z,12
2023-04-26T09:52:59.439Z,8
2023-04-26T09:54:13.569Z,12
2023-04-26T09:57:55.956Z,10
2023-04-26T09:59:10.117Z,11
2023-04-26T10:00:24.326Z,18
2023-04-26T10:01:38.413Z,20
2023-04-26T10:02:52.745Z,11
2023-04-26T10:04:06.765Z,6
2023-04-26T10:05:20.850Z,7
2023-04-26T10:07:49.060Z,9
2023-04-26T10:09:03.173Z,10
2023-04-26T10:10:17.365Z,11
2023-04-26T10:12:45.565Z,9
2023-04-26T10:13:59.718Z,10
2023-04-26T10:15:13.881Z,9
2023-04-26T10:17:42.209Z,11
2023-04-26T10:18:56.240Z,11
2023-04-26T10:20:10.418Z,6
2023-04-26T10:21:24.555Z,11
2023-04-26T10:23:52.844Z,11
2023-04-26T10:25:06.993Z,9
2023-04-26T10:26:21.054Z,9
2023-04-26T10:28:50.825Z,13
2023-04-26T10:30:03.427Z,15
2023-04-26T10:31:17.689Z,11
2023-04-26T10:33:45.834Z,10
2023-04-26T10:35:00.016Z,10
2023-04-26T10:36:14.115Z,10
2023-04-26T10:38:42.404Z,9
2023-04-26T10:39:56.506Z,10
2023-04-26T10:41:10.609Z,7
2023-04-26T10:43:38.905Z,8
2023-04-26T10:44:53.104Z,9
2023-04-26T10:46:07.274Z,9
2023-04-26T10:47:21.324Z,9
2023-04-26T10:49:49.619Z,10
2023-04-26T10:51:03.706Z,10
2023-04-26T10:52:17.852Z,9
2023-04-26T10:54:46.109Z,6
2023-04-26T10:56:00.230Z,9
2023-04-26T10:57:14.463Z,10
2023-04-26T10:59:54.020Z,7
2023-04-26T11:00:56.788Z,6
2023-04-26T11:02:10.944Z,9
2023-04-26T11:04:39.244Z,6
2023-04-26T11:05:53.334Z,8
2023-04-26T11:07:07.478Z,9
2023-04-26T11:08:21.559Z,8
2023-04-26T11:10:49.845Z,7
2023-04-26T11:12:03.984Z,6
2023-04-26T11:13:18.139Z,7
2023-04-26T11:15:46.416Z,9
2023-04-26T11:17:00.494Z,7
2023-04-26T11:18:14.706Z,7
2023-04-26T11:20:42.990Z,8
2023-04-26T11:21:57.052Z,8
2023-04-26T11:23:11.199Z,8
2023-04-26T11:25:39.427Z,7
2023-04-26T11:26:53.674Z,8
2023-04-26T11:28:07.714Z,9
2023-04-26T11:29:21.948Z,7
2023-04-26T11:31:50.201Z,10
2023-04-26T11:33:04.325Z,5
2023-04-26T11:34:18.403Z,5
2023-04-26T11:36:46.690Z,8
2023-04-26T11:38:00.761Z,6
2023-04-26T11:39:14.957Z,8
2023-04-26T11:41:43.334Z,6
2023-04-26T11:42:57.343Z,7
2023-04-26T11:44:11.406Z,6
2023-04-26T11:46:40.110Z,7
2023-04-26T11:47:54.021Z,7
2023-04-26T11:49:07.962Z,11
2023-04-26T11:50:22.133Z,8
2023-04-26T11:52:50.363Z,7
2023-04-26T11:54:04.508Z,8
2023-04-26T11:55:18.806Z,8
2023-04-26T11:57:46.928Z,8
2023-04-26T11:59:01.018Z,8
2023-04-26T12:00:15.187Z,7
2023-04-26T12:02:43.579Z,8
2023-04-26T12:03:57.782Z,6
2023-04-26T12:05:11.834Z,7
2023-04-26T12:06:25.884Z,7
2023-04-26T12:07:39.987Z,8
2023-04-26T12:08:54.157Z,8
2023-04-26T12:10:08.300Z,6
2023-04-26T12:11:22.391Z,7
2023-04-26T12:13:50.596Z,7
2023-04-26T12:15:04.782Z,8
2023-04-26T12:16:26.205Z,7
2023-04-26T12:18:47.156Z,6
2023-04-26T12:20:01.293Z,11
2023-04-26T12:21:15.558Z,8
2023-04-26T12:23:43.714Z,9
2023-04-26T12:24:57.824Z,5
2023-04-26T12:26:12.021Z,7
2023-04-26T12:28:40.210Z,9
2023-04-26T12:29:54.402Z,8
2023-04-26T12:31:08.581Z,6
2023-04-26T12:32:22.938Z,8
2023-04-26T12:34:50.904Z,7
2023-04-26T12:36:05.024Z,8
2023-04-26T12:37:19.245Z,7
2023-04-26T12:39:47.502Z,6
2023-04-26T12:41:01.577Z,7
2023-04-26T12:42:15.780Z,8
2023-04-26T12:44:44.052Z,7
2023-04-26T12:45:58.083Z,7
2023-04-26T12:47:12.250Z,9
2023-04-26T12:49:40.474Z,11
2023-04-26T12:50:54.632Z,8
2023-04-26T12:52:08.777Z,6
2023-04-26T12:53:22.918Z,5
2023-04-26T12:55:51.177Z,6
2023-04-26T12:57:05.295Z,12
2023-04-26T12:58:19.423Z,8
2023-04-26T13:00:47.733Z,7
2023-04-26T13:02:02.046Z,7
2023-04-26T13:03:16.112Z,5
2023-04-26T13:05:44.307Z,10
2023-04-26T13:06:58.366Z,6
2023-04-26T13:08:12.775Z,8
2023-04-26T13:10:40.733Z,7
2023-04-26T13:11:54.909Z,11
2023-04-26T13:13:09.028Z,10
2023-04-26T13:14:23.199Z,8
2023-04-26T13:16:51.433Z,6
2023-04-26T13:18:05.646Z,7
2023-04-26T13:19:19.677Z,6
2023-04-26T13:21:48.008Z,8
2023-04-26T13:23:02.127Z,10
2023-04-26T13:24:16.368Z,7
2023-04-26T13:26:44.525Z,7
2023-04-26T13:27:58.626Z,6
2023-04-26T13:29:12.762Z,7
2023-04-26T13:30:26.956Z,7
2023-04-26T13:31:41.101Z,6
2023-04-26T13:32:56.107Z,5
2023-04-26T13:34:09.348Z,6
2023-04-26T13:35:23.511Z,7
2023-04-26T13:37:51.688Z,7
2023-04-26T13:39:05.829Z,7
2023-04-26T13:40:20.007Z,5
2023-04-26T13:42:48.247Z,8
2023-04-26T13:44:02.441Z,6
2023-04-26T13:45:18.740Z,8
2023-04-26T13:47:44.809Z,7
2023-04-26T13:48:58.914Z,9
2023-04-26T13:50:13.071Z,7
2023-04-26T13:52:41.290Z,5
2023-04-26T13:53:55.479Z,4
2023-04-26T13:55:09.543Z,7
2023-04-26T13:56:26.103Z,7
2023-04-26T13:58:52.026Z,5
2023-04-26T14:00:06.209Z,7
2023-04-26T14:01:20.250Z,6
2023-04-26T14:03:48.687Z,6
2023-04-26T14:05:02.845Z,9
2023-04-26T14:06:16.758Z,9
2023-04-26T14:08:44.995Z,9
2023-04-26T14:09:59.138Z,7
2023-04-26T14:11:13.285Z,7
2023-04-26T14:13:41.552Z,7
2023-04-26T14:14:55.715Z,8
2023-04-26T14:16:09.827Z,9
2023-04-26T14:17:24.045Z,9
2023-04-26T14:19:54.519Z,8
2023-04-26T14:21:06.393Z,8
2023-04-26T14:22:20.466Z,9
2023-04-26T14:24:48.804Z,6
2023-04-26T14:26:02.868Z,8
2023-04-26T14:27:17.125Z,7
2023-04-26T14:29:45.301Z,9
2023-04-26T14:30:59.427Z,6
2023-04-26T14:32:13.694Z,7
2023-04-26T14:34:41.774Z,6
2023-04-26T14:35:56.100Z,7
2023-04-26T14:37:10.069Z,7
2023-04-26T14:38:24.223Z,7
2023-04-26T14:40:52.569Z,7
2023-04-26T14:42:06.617Z,5
2023-04-26T14:43:20.725Z,5
2023-04-26T14:45:49.117Z,6
2023-04-26T14:47:03.200Z,7
2023-04-26T14:48:17.449Z,9
2023-04-26T14:50:45.586Z,5
2023-04-26T14:51:59.740Z,7
2023-04-26T14:53:13.902Z,7
2023-04-26T14:55:42.164Z,8
2023-04-26T14:56:56.234Z,7
2023-04-26T14:58:10.331Z,8
2023-04-26T14:59:24.589Z,6
2023-04-26T15:01:52.944Z,6
2023-04-26T15:03:07.063Z,9
2023-04-26T15:04:21.210Z,6
2023-04-26T15:06:49.505Z,4
2023-04-26T15:09:17.598Z,8
2023-04-26T15:11:45.829Z,7
2023-04-26T15:12:59.992Z,8
2023-04-26T15:14:14.129Z,6
2023-04-26T15:16:42.441Z,7
2023-04-26T15:17:56.532Z,9
2023-04-26T15:19:10.623Z,5
2023-04-26T15:21:38.901Z,7
2023-04-26T15:22:53.006Z,6
2023-04-26T15:24:07.249Z,6
2023-04-26T15:25:21.351Z,4
2023-04-26T15:27:49.566Z,6
2023-04-26T15:29:03.673Z,7
2023-04-26T15:30:17.837Z,8
2023-04-26T15:32:46.107Z,7
2023-04-26T15:34:00.194Z,8
2023-04-26T15:35:14.352Z,8
2023-04-26T15:37:42.600Z,7
2023-04-26T15:38:56.742Z,7
2023-04-26T15:40:11.008Z,5
2023-04-26T15:42:39.275Z,6
2023-04-26T15:43:53.353Z,7
2023-04-26T15:45:07.483Z,8
2023-04-26T15:46:21.635Z,6
2023-04-26T15:48:49.812Z,9
2023-04-26T15:50:03.942Z,8
2023-04-26T15:51:18.170Z,7
2023-04-26T15:53:46.351Z,4
2023-04-26T15:55:00.445Z,8
2023-04-26T15:56:14.612Z,6
2023-04-26T15:58:42.885Z,5
2023-04-26T15:59:57.042Z,8
2023-04-26T16:01:11.154Z,7
2023-04-26T16:03:39.576Z,7
2023-04-26T16:04:53.705Z,7
2023-04-26T16:06:07.718Z,9
2023-04-26T16:07:21.811Z,6
2023-04-26T16:09:50.058Z,8
2023-04-26T16:11:04.253Z,8
2023-04-26T16:12:18.345Z,6
2023-04-26T16:14:46.599Z,8
2023-04-26T16:16:00.794Z,8
2023-04-26T16:17:14.871Z,6
2023-04-26T16:19:43.129Z,5
2023-04-26T16:20:57.299Z,8
2023-04-26T16:22:11.382Z,7
2023-04-26T16:24:39.686Z,5
2023-04-26T16:25:53.920Z,6
2023-04-26T16:27:07.955Z,8
2023-04-26T16:28:22.066Z,7
2023-04-26T16:30:50.327Z,5
2023-04-26T16:32:04.785Z,5
2023-04-26T16:33:20.479Z,8
2023-04-26T16:35:46.903Z,7
2023-04-26T16:37:01.066Z,5
2023-04-26T16:38:15.133Z,6
2023-04-26T16:40:43.580Z,8
2023-04-26T16:41:57.549Z,8
2023-04-26T16:43:11.636Z,10
2023-04-26T16:45:40.011Z,7
2023-04-26T16:46:54.143Z,7
2023-04-26T16:48:08.398Z,7
2023-04-26T16:49:22.328Z,7
2023-04-26T16:51:59.008Z,9
2023-04-26T16:53:13.040Z,9
2023-04-26T16:55:41.206Z,7
2023-04-26T16:56:55.335Z,5
2023-04-26T16:58:11.550Z,10
2023-04-26T16:59:23.611Z,7
2023-04-26T17:01:51.911Z,7
2023-04-26T17:03:06.122Z,6
2023-04-26T17:04:20.240Z,5
2023-04-26T17:06:48.448Z,7
2023-04-26T17:08:02.571Z,6
2023-04-26T17:09:16.658Z,7
2023-04-26T17:11:44.971Z,7
2023-04-26T17:12:59.124Z,7
2023-04-26T17:14:13.192Z,5
2023-04-26T17:16:41.554Z,8
2023-04-26T17:17:55.749Z,5
2023-04-26T17:19:09.717Z,7
2023-04-26T17:20:23.979Z,8
2023-04-26T17:22:52.143Z,6
2023-04-26T17:24:06.388Z,6
2023-04-26T17:25:20.357Z,6
2023-04-26T17:27:48.680Z,6
2023-04-26T17:29:02.828Z,9
2023-04-26T17:30:16.957Z,8
2023-04-26T17:32:45.293Z,7
2023-04-26T17:33:59.321Z,8
2023-04-26T17:35:13.555Z,6
2023-04-26T17:37:41.770Z,5
2023-04-26T17:38:55.914Z,5
2023-04-26T17:40:10.045Z,5
2023-04-26T17:41:24.144Z,7
2023-04-26T17:43:52.375Z,5
2023-04-26T17:45:06.621Z,8
2023-04-26T17:46:20.723Z,8
2023-04-26T17:48:49.017Z,5
2023-04-26T17:50:03.179Z,6
2023-04-26T17:51:17.713Z,8
2023-04-26T17:53:45.458Z,7
2023-04-26T17:54:59.593Z,8
2023-04-26T17:56:13.770Z,7
2023-04-26T17:58:41.992Z,7
2023-04-26T17:59:56.265Z,8
2023-04-26T18:01:10.271Z,8
2023-04-26T18:02:24.492Z,7
2023-04-26T18:04:53.074Z,5
2023-04-26T18:06:06.871Z,7
2023-04-26T18:07:20.896Z,6
2023-04-26T18:09:49.189Z,7
2023-04-26T18:11:03.410Z,6
2023-04-26T18:12:17.454Z,7
2023-04-26T18:14:45.736Z,5
2023-04-26T18:15:59.862Z,7
2023-04-26T18:17:14.184Z,6
2023-04-26T18:19:42.255Z,8
2023-04-26T18:20:56.519Z,4
2023-04-26T18:22:10.509Z,6
2023-04-26T18:23:24.663Z,7
2023-04-26T18:25:52.949Z,8
2023-04-26T18:27:07.092Z,8
2023-04-26T18:28:21.162Z,8
2023-04-26T18:30:49.452Z,9
2023-04-26T18:32:03.635Z,6
2023-04-26T18:33:17.928Z,5
2023-04-26T18:35:45.998Z,6
2023-04-26T18:37:00.110Z,6
2023-04-26T18:38:14.233Z,6
2023-04-26T18:40:42.634Z,6
2023-04-26T18:41:56.644Z,7
2023-04-26T18:43:10.742Z,9
2023-04-26T18:44:24.907Z,7
2023-04-26T18:46:53.377Z,5
2023-04-26T18:48:07.374Z,7
2023-04-26T18:49:21.426Z,8
2023-04-26T18:51:50.125Z,5
2023-04-26T18:53:03.866Z,8
2023-04-26T18:54:17.964Z,6
2023-04-26T18:56:46.254Z,6
2023-04-26T18:58:00.407Z,11
2023-04-26T18:59:14.562Z,8
2023-04-26T19:01:42.934Z,6
2023-04-26T19:02:57.230Z,6
2023-04-26T19:04:11.213Z,5
2023-04-26T19:05:25.274Z,8
2023-04-26T19:07:53.525Z,6
2023-04-26T19:09:07.678Z,5
2023-04-26T19:10:21.700Z,7
2023-04-26T19:12:49.977Z,6
2023-04-26T19:14:04.208Z,7
2023-04-26T19:15:18.254Z,6
2023-04-26T19:17:46.757Z,7
2023-04-26T19:19:00.617Z,5
2023-04-26T19:20:14.824Z,6
2023-04-26T19:22:43.064Z,7
2023-04-26T19:23:57.177Z,6
2023-04-26T19:25:11.302Z,8
2023-04-26T19:27:39.564Z,6
2023-04-26T19:28:53.777Z,6
2023-04-26T19:30:07.912Z,8
2023-04-26T19:31:22.001Z,7
2023-04-26T19:33:50.216Z,7
2023-04-26T19:35:04.469Z,6
2023-04-26T19:36:18.515Z,5
2023-04-26T19:37:32.722Z,8
2023-04-26T19:38:46.766Z,5
2023-04-26T19:40:00.925Z,6
2023-04-26T19:41:15.146Z,6
2023-04-26T19:43:43.325Z,7
2023-04-26T19:44:57.455Z,6
2023-04-26T19:46:11.706Z,9
2023-04-26T19:48:39.837Z,7
2023-04-26T19:49:53.979Z,6
2023-04-26T19:51:08.099Z,7
2023-04-26T19:52:22.231Z,10
2023-04-26T19:54:50.500Z,6
2023-04-26T19:56:04.704Z,6
2023-04-26T19:57:18.849Z,5
2023-04-26T19:59:47.048Z,8
2023-04-26T20:01:01.258Z,6
2023-04-26T20:02:15.487Z,6
2023-04-26T20:04:43.680Z,5
2023-04-26T20:05:57.709Z,6
2023-04-26T20:07:11.848Z,8
2023-04-26T20:08:26.087Z,9
2023-04-26T20:09:40.122Z,11
2023-04-26T20:10:54.215Z,7
2023-04-26T20:12:08.391Z,7
2023-04-26T20:13:22.504Z,8
2023-04-26T20:15:50.737Z,6
2023-04-26T20:17:05.273Z,10
2023-04-26T20:18:19.025Z,8
2023-04-26T20:20:47.355Z,7
2023-04-26T20:22:01.407Z,8
2023-04-26T20:23:15.668Z,6
2023-04-26T20:25:43.886Z,6
2023-04-26T20:26:57.945Z,5
2023-04-26T20:28:12.090Z,7
2023-04-26T20:30:40.336Z,7
2023-04-26T20:31:54.737Z,8
2023-04-26T20:33:08.692Z,6
2023-04-26T20:34:22.766Z,7
2023-04-26T20:36:50.996Z,6
2023-04-26T20:38:05.264Z,8
2023-04-26T20:39:19.318Z,7
2023-04-26T20:41:47.560Z,8
2023-04-26T20:43:01.674Z,8
2023-04-26T20:44:15.847Z,7
2023-04-26T20:46:44.120Z,6
2023-04-26T20:47:58.254Z,7
2023-04-26T20:49:12.357Z,7
2023-04-26T20:51:40.595Z,7
2023-04-26T20:52:54.805Z,6
2023-04-26T20:54:08.890Z,7
2023-04-26T20:55:23.038Z,7
2023-04-26T20:57:51.294Z,10
2023-04-26T20:59:05.605Z,5
2023-04-26T21:00:19.552Z,6
2023-04-26T21:02:48.020Z,6
2023-04-26T21:04:02.149Z,6
2023-04-26T21:05:16.107Z,8
2023-04-26T21:07:44.380Z,9
2023-04-26T21:08:58.506Z,8
2023-04-26T21:10:12.654Z,8
2023-04-26T21:12:40.873Z,10
2023-04-26T21:13:55.027Z,8
2023-04-26T21:15:09.202Z,8
2023-04-26T21:16:23.321Z,8
2023-04-26T21:18:51.524Z,7
2023-04-26T21:20:05.766Z,5
2023-04-26T21:21:19.815Z,8
2023-04-26T21:23:48.155Z,7
2023-04-26T21:25:02.226Z,8
2023-04-26T21:26:16.432Z,8
2023-04-26T21:28:44.697Z,6
2023-04-26T21:29:58.759Z,7
2023-04-26T21:31:21.281Z,8
2023-04-26T21:33:41.335Z,6
2023-04-26T21:34:55.481Z,7
2023-04-26T21:36:09.417Z,8
2023-04-26T21:37:23.570Z,8
2023-04-26T21:39:51.878Z,7
2023-04-26T21:41:06.070Z,7
2023-04-26T21:42:20.108Z,7
2023-04-26T21:44:48.388Z,7
2023-04-26T21:46:02.535Z,6
2023-04-26T21:47:16.636Z,8
2023-04-26T21:49:44.963Z,7
2023-04-26T21:50:59.016Z,7
2023-04-26T21:52:13.192Z,7
2023-04-26T21:54:41.441Z,9
2023-04-26T21:55:55.569Z,7
2023-04-26T21:57:09.682Z,9
2023-04-26T21:58:23.818Z,7
2023-04-26T22:00:52.085Z,8
2023-04-26T22:02:06.251Z,7
2023-04-26T22:03:20.444Z,10
2023-04-26T22:05:48.728Z,8
2023-04-26T22:07:02.901Z,8
2023-04-26T22:08:17.015Z,6
2023-04-26T22:10:45.169Z,7
2023-04-26T22:11:59.678Z,8
2023-04-26T22:13:13.415Z,7
2023-04-26T22:15:41.713Z,7
2023-04-26T22:16:55.962Z,7
2023-04-26T22:18:09.956Z,6
2023-04-26T22:19:24.102Z,6
2023-04-26T22:21:54.412Z,6
2023-04-26T22:23:06.556Z,7
2023-04-26T22:24:20.615Z,10
2023-04-26T22:26:48.953Z,8
2023-04-26T22:28:03.131Z,5
2023-04-26T22:29:17.162Z,7
2023-04-26T22:31:45.489Z,6
2023-04-26T22:32:59.732Z,6
2023-04-26T22:34:13.685Z,9
2023-04-26T22:36:41.966Z,7
2023-04-26T22:37:56.129Z,8
2023-04-26T22:39:10.514Z,7
2023-04-26T22:40:24.363Z,6
2023-04-26T22:42:52.672Z,7
2023-04-26T22:44:06.786Z,6
2023-04-26T22:45:20.884Z,10
2023-04-26T22:47:49.179Z,10
2023-04-26T22:49:03.348Z,10
2023-04-26T22:50:17.501Z,7
2023-04-26T22:52:45.678Z,9
2023-04-26T22:53:59.831Z,6
2023-04-26T22:55:14.083Z,9
2023-04-26T22:57:42.212Z,8
2023-04-26T22:58:56.357Z,9
2023-04-26T23:00:10.484Z,9
2023-04-26T23:01:24.645Z,7
2023-04-26T23:03:52.988Z,8
2023-04-26T23:05:07.057Z,8
2023-04-26T23:06:21.139Z,11
2023-04-26T23:08:49.418Z,8
2023-04-26T23:10:03.607Z,6
2023-04-26T23:11:17.739Z,5
2023-04-26T23:13:45.969Z,7
2023-04-26T23:15:00.136Z,11
2023-04-26T23:16:14.249Z,6
2023-04-26T23:18:42.470Z,9
2023-04-26T23:19:56.648Z,8
2023-04-26T23:21:10.719Z,8
2023-04-26T23:22:25.024Z,7
2023-04-26T23:24:53.256Z,8
2023-04-26T23:26:08.640Z,5